TimeCEST,TemperatureF,Dew PointF,Humidity,Sea Level PressureIn,VisibilityMPH,Wind Direction,Wind SpeedMPH,Gust SpeedMPH,PrecipitationIn,Events,Conditions,WindDirDegrees,DateUTC
12:00 AM,57.2,55.4,94,30.15,-9999.0,Variable,2.3,-,N/A,,Clear,0,2012-10-05 22:00:00
12:30 AM,57.2,55.4,94,30.15,-9999.0,Variable,2.3,-,N/A,,Clear,0,2012-10-05 22:30:00
1:00 AM,57.2,55.4,94,30.15,-9999.0,Variable,2.3,-,N/A,,Clear,0,2012-10-05 23:00:00
1:30 AM,57.2,55.4,94,30.15,-9999.0,Variable,2.3,-,N/A,,Clear,0,2012-10-05 23:30:00
2:00 AM,57,54,88,30.16,12,NE,2.2,,,,,40,2012-10-06 00:00:00
2:00 AM,57.2,55.4,94,30.15,-9999.0,Variable,2.3,-,N/A,,Clear,0,2012-10-06 00:00:00
2:30 AM,57.2,55.4,94,30.15,-9999.0,Variable,2.3,-,N/A,,Clear,0,2012-10-06 00:30:00
3:00 AM,57.2,55.4,94,30.15,-9999.0,Variable,2.3,-,N/A,,Clear,0,2012-10-06 01:00:00
3:30 AM,57.2,55.4,94,30.12,-9999.0,Variable,2.3,-,N/A,,Clear,0,2012-10-06 01:30:00
4:00 AM,57.2,55.4,94,30.12,-9999.0,ENE,4.6,-,N/A,,Clear,60,2012-10-06 02:00:00
4:30 AM,59.0,57.2,94,30.12,-9999.0,Variable,2.3,-,N/A,,Clear,0,2012-10-06 02:30:00
5:00 AM,59,57,92,30.14,12,ENE,2.2,,,,,70,2012-10-06 03:00:00
5:00 AM,59.0,57.2,94,30.12,-9999.0,Variable,2.3,-,N/A,,Clear,0,2012-10-06 03:00:00
5:30 AM,59.0,57.2,94,30.12,-9999.0,Variable,2.3,-,N/A,,Clear,0,2012-10-06 03:30:00
6:00 AM,57,55,92,30.14,4,ENE,2.2,,,,Mist,60,2012-10-06 04:00:00
6:00 AM,57.2,55.4,94,30.12,3.7,Variable,3.5,-,N/A,,Unknown,0,2012-10-06 04:00:00
6:30 AM,57.2,57.2,100,30.12,3.7,NE,4.6,-,N/A,,Unknown,50,2012-10-06 04:30:00
7:00 AM,59,58,96,30.14,4,ENE,4.5,,,,Mist,70,2012-10-06 05:00:00
7:00 AM,59.0,59.0,100,30.12,3.7,ENE,4.6,-,N/A,,Unknown,70,2012-10-06 05:00:00
7:30 AM,59.0,57.2,94,30.12,3.7,Variable,3.5,-,N/A,,Unknown,0,2012-10-06 05:30:00
8:00 AM,59,58,96,30.15,4,ENE,4.5,,,,Mist,70,2012-10-06 06:00:00
8:00 AM,59.0,59.0,100,30.12,4.3,ENE,4.6,-,N/A,,Unknown,70,2012-10-06 06:00:00
8:30 AM,60.8,60.8,100,30.12,5.0,Variable,3.5,-,N/A,,Unknown,0,2012-10-06 06:30:00
9:00 AM,64.4,62.6,94,30.12,5.0,East,4.6,-,N/A,,Unknown,80,2012-10-06 07:00:00
9:30 AM,66.2,62.6,88,30.15,-9999.0,ENE,4.6,-,N/A,,Clear,70,2012-10-06 07:30:00
10:00 AM,68.0,60.8,78,30.15,-9999.0,East,4.6,-,N/A,,Clear,90,2012-10-06 08:00:00
10:30 AM,69.8,62.6,78,30.15,-9999.0,ENE,4.6,-,N/A,,Clear,70,2012-10-06 08:30:00
11:00 AM,72,62,62,30.15,6,ESE,2.2,,,,Clear,120,2012-10-06 09:00:00
11:00 AM,71.6,62.6,73,30.15,-9999.0,Variable,2.3,-,N/A,,Clear,0,2012-10-06 09:00:00
11:30 AM,73.4,62.6,69,30.15,6.2,Variable,2.3,-,N/A,,Partly Cloudy,0,2012-10-06 09:30:00
12:00 PM,71.6,60.8,69,30.15,6.2,Variable,3.5,-,N/A,,Partly Cloudy,0,2012-10-06 10:00:00
12:30 PM,73.4,60.8,65,30.15,6.2,Variable,4.6,-,N/A,,Scattered Clouds,0,2012-10-06 10:30:00
1:00 PM,71.6,60.8,69,30.12,6.2,SSW,6.9,-,N/A,,Scattered Clouds,200,2012-10-06 11:00:00
1:30 PM,71.6,62.6,73,30.12,6.2,Variable,4.6,-,N/A,,Scattered Clouds,0,2012-10-06 11:30:00
2:00 PM,74,63,60,30.13,9,South,4.5,,,,Partly Cloudy,180,2012-10-06 12:00:00
2:00 PM,73.4,62.6,69,30.12,6.2,Variable,5.8,-,N/A,,Scattered Clouds,0,2012-10-06 12:00:00
2:30 PM,73.4,62.6,69,30.12,6.2,Variable,4.6,-,N/A,,Scattered Clouds,0,2012-10-06 12:30:00
3:00 PM,75.2,60.8,61,30.09,6.2,Variable,4.6,-,N/A,,Scattered Clouds,0,2012-10-06 13:00:00
3:30 PM,73.4,60.8,65,30.09,6.2,Variable,4.6,-,N/A,,Partly Cloudy,0,2012-10-06 13:30:00
4:00 PM,73.4,59.0,61,30.09,6.2,SSW,5.8,-,N/A,,Partly Cloudy,200,2012-10-06 14:00:00
4:30 PM,73.4,62.6,69,30.09,6.2,Variable,4.6,-,N/A,,Partly Cloudy,0,2012-10-06 14:30:00
5:00 PM,72,62,62,30.08,12,ESE,4.5,,,,Scattered Clouds,110,2012-10-06 15:00:00
5:00 PM,71.6,60.8,69,30.06,6.2,Variable,3.5,-,N/A,,Partly Cloudy,0,2012-10-06 15:00:00
5:30 PM,71.6,62.6,73,30.06,6.2,Variable,3.5,-,N/A,,Partly Cloudy,0,2012-10-06 15:30:00
6:00 PM,69.8,60.8,73,30.06,6.2,Variable,2.3,-,N/A,,Partly Cloudy,0,2012-10-06 16:00:00
6:30 PM,66.2,60.8,83,30.06,-9999.0,Variable,1.2,-,N/A,,Clear,0,2012-10-06 16:30:00
7:00 PM,62.6,59.0,88,30.09,-9999.0,Variable,2.3,-,N/A,,Clear,0,2012-10-06 17:00:00
7:30 PM,62.6,60.8,94,30.09,-9999.0,Variable,2.3,-,N/A,,Clear,0,2012-10-06 17:30:00
8:00 PM,61,59,89,30.10,6,East,2.2,,,,Scattered Clouds,80,2012-10-06 18:00:00
8:00 PM,60.8,59.0,94,30.09,-9999.0,Variable,2.3,-,N/A,,Clear,0,2012-10-06 18:00:00
8:30 PM,59.0,57.2,94,30.09,6.2,Variable,2.3,-,N/A,,Partly Cloudy,0,2012-10-06 18:30:00
9:00 PM,60.8,59.0,94,30.09,-9999.0,Variable,2.3,-,N/A,,Clear,0,2012-10-06 19:00:00
9:30 PM,59.0,57.2,94,30.09,-9999.0,ENE,4.6,-,N/A,,Clear,70,2012-10-06 19:30:00
10:00 PM,59.0,57.2,94,30.09,6.2,ENE,4.6,-,N/A,,Partly Cloudy,70,2012-10-06 20:00:00
10:30 PM,57.2,55.4,94,30.09,6.2,Variable,2.3,-,N/A,,Partly Cloudy,0,2012-10-06 20:30:00
11:00 PM,57,56,95,30.11,6,NNE,2.2,,,,Scattered Clouds,30,2012-10-06 21:00:00
11:00 PM,57.2,55.4,94,30.09,6.2,Variable,2.3,-,N/A,,Partly Cloudy,0,2012-10-06 21:00:00
11:30 PM,59.0,57.2,94,30.09,6.2,Variable,2.3,-,N/A,,Partly Cloudy,0,2012-10-06 21:30:00